Latest Weather Observations for Lochington

IDQ60801

Issued at 3:05 pm EST Saturday 1 November 2014 (issued every 30 minutes, with the page automatically refreshed every 10 minutes)

About weather observations | Map of weather stations | Latest weather observations for QLD | Other Formats
Station Details ID: 035139 Name: LOCHINGTON Lat: -23.94 Lon: 147.53 Height: 267.19 m
Data from the previous 72 hours. | See also: Recent months at Lochington
Date/Time
EST
Temp
°C
App
Temp
°C
Dew
Point
Rel
Hum
%
Delta-T
°C
Wind Press
QNH
hPa
Press
MSL
hPa
Rain
since 9 am
mm
Dir
 
Spd
km/h
Gust
km/h
Spd
kts
Gust
kts
01/03:00pm 36.1 32.8 9.6 20 15.5 N 17 26 9 14 1009.3 1007.6 0.0
01/02:30pm 35.3 32.6 10.4 22 14.7 N 15 24 8 13 1009.7 1008.0 0.0
01/02:00pm 34.8 33.3 10.6 23 14.3 N 9 22 5 12 1010.2 1008.6 0.0
01/01:30pm 34.6 31.7 11.1 24 13.9 N 17 24 9 13 1010.9 1009.3 0.0
01/01:00pm 34.2 31.8 11.4 25 13.6 N 15 33 8 18 1011.5 1009.9 0.0
01/12:30pm 32.5 29.8 10.5 26 12.8 N 15 24 8 13 1012.4 1010.7 0.0
01/12:00pm 32.3 29.9 11.5 28 12.3 NNE 15 26 8 14 1013.0 1011.3 0.0
01/11:30am 31.8 29.1 11.6 29 11.9 N 17 26 9 14 1013.6 1012.0 0.0
01/11:00am 31.0 28.8 10.9 29 11.7 NNE 13 24 7 13 1013.9 1012.3 0.0
01/10:30am 30.3 27.3 11.8 32 10.9 N 19 30 10 16 1014.5 1012.9 0.0
01/10:00am 28.1 26.0 13.6 41 8.7 N 17 28 9 15 1014.9 1013.3 0.0
01/09:30am 26.7 25.1 13.8 45 7.7 NNE 15 30 8 16 1015.1 1013.8 0.0
01/09:00am 26.1 24.8 14.9 50 6.8 NNE 15 26 8 14 1015.4 1014.1 0.0
01/08:30am 24.6 23.5 15.2 55 5.7 NNE 15 20 8 11 1015.6 1014.3 0.0
01/08:00am 23.9 23.2 16.4 63 4.6 NNE 15 24 8 13 1015.9 1014.6 0.0
01/07:30am 23.1 21.9 16.2 65 4.2 NE 17 26 9 14 1015.5 1014.2 0.0
01/07:00am 22.1 21.1 16.6 71 3.4 NE 17 24 9 13 1015.0 1013.7 0.0
01/06:30am 21.0 20.8 16.6 76 2.7 NE 13 20 7 11 1014.8 1013.5 0.0
01/06:00am 20.3 20.5 16.7 80 2.2 NE 11 17 6 9 1014.8 1013.5 0.0
01/05:30am 19.8 20.2 16.4 81 2.1 ENE 9 13 5 7 1014.5 1013.2 0.0
01/05:00am 19.9 20.7 16.3 80 2.2 ENE 7 11 4 6 1014.3 1012.9 0.0
01/04:30am 19.9 20.2 16.0 78 2.4 ENE 9 13 5 7 1013.9 1012.5 0.0
01/04:00am 20.2 20.4 15.8 76 2.7 ENE 9 13 5 7 1013.4 1012.0 0.0
01/03:30am 20.4 20.5 15.6 74 2.9 E 9 11 5 6 1013.3 1011.9 0.0
01/03:00am 21.0 21.2 15.8 72 3.1 ENE 9 13 5 7 1013.0 1011.6 0.0
01/02:30am 21.3 21.7 15.4 69 3.5 E 7 11 4 6 1012.9 1011.5 0.0
01/02:00am 21.9 22.0 15.5 67 3.9 ENE 9 15 5 8 1012.6 1011.2 0.0
01/01:30am 22.4 22.5 15.5 65 4.2 ENE 9 15 5 8 1012.6 1011.2 0.0
01/01:00am 22.9 22.5 15.2 62 4.6 ENE 11 17 6 9 1012.6 1011.2 0.0
01/12:30am 23.4 23.0 15.2 60 5.0 ENE 11 20 6 11 1012.7 1011.3 0.0
01/12:00am 24.3 23.5 15.2 57 5.5 ENE 13 20 7 11 1012.7 1011.3 0.0
 
Date/Time
EST
Temp
°C
App
Temp
°C
Dew
Point
Rel
Hum
%
Delta-T
°C
Wind Press
QNH
hPa
Press
MSL
hPa
Rain
since 9 am
mm
Dir
 
Spd
km/h
Gust
km/h
Spd
kts
Gust
kts
31/11:30pm 25.2 23.3 15.2 54 6.1 NE 19 30 10 16 1012.8 1011.4 0.0
31/11:00pm 25.8 23.8 14.9 51 6.6 NE 19 32 10 17 1012.6 1011.2 0.0
31/10:30pm 26.6 24.0 15.0 49 7.1 NE 22 33 12 18 1012.6 1011.2 0.0
31/10:00pm 27.3 24.4 15.0 47 7.5 NE 24 43 13 23 1012.5 1011.1 0.0
31/09:30pm 28.1 25.8 14.7 44 8.2 NE 20 37 11 20 1012.3 1010.9 0.0
31/09:00pm 28.9 26.8 13.6 39 9.2 NE 17 28 9 15 1012.0 1010.7 0.0
31/08:30pm 28.9 26.8 9.6 30 10.9 ENE 11 17 6 9 1012.0 1010.7 0.0
31/08:00pm 29.5 27.7 9.6 29 11.3 NNE 9 11 5 6 1011.6 1010.3 0.0
31/07:30pm 30.2 28.3 9.1 27 11.9 NNE 9 11 5 6 1011.3 1010.0 0.0
31/07:00pm 31.0 28.8 9.3 26 12.3 NNE 11 13 6 7 1011.0 1009.6 0.0
31/06:30pm 32.3 29.3 9.2 24 13.2 NNE 15 22 8 12 1010.6 1009.2 0.0
31/06:00pm 33.1 29.3 9.2 23 13.7 NNE 19 26 10 14 1010.3 1008.9 0.0
31/05:30pm 33.7 30.3 9.0 22 14.1 NNE 17 24 9 13 1010.1 1008.7 0.0
31/05:00pm 34.5 31.8 10.4 23 14.2 N 15 24 8 13 1010.0 1008.6 0.0
31/04:30pm 34.4 30.6 8.9 21 14.6 NNE 19 32 10 17 1010.0 1008.6 0.0
31/04:00pm 34.9 31.2 9.3 21 14.8 N 19 37 10 20 1010.0 1008.6 0.0
31/03:30pm 34.5 31.1 10.4 23 14.1 N 19 28 10 15 1010.3 1008.9 0.0
31/03:00pm 34.6 31.2 10.4 23 14.2 NNE 19 32 10 17 1010.5 1009.1 0.0
31/02:30pm 34.5 30.5 10.4 23 14.1 NNE 22 32 12 17 1010.9 1009.5 0.0
31/02:00pm 34.5 30.7 11.0 24 13.9 N 22 33 12 18 1011.3 1010.0 0.0
31/01:30pm 33.5 30.1 11.4 26 13.1 NNE 20 37 11 20 1011.7 1010.4 0.0
31/01:00pm 32.8 29.6 11.3 27 12.7 NNE 19 30 10 16 1012.3 1010.9 0.0
31/12:30pm 33.1 30.0 12.1 27 12.6 N 20 30 11 16 1012.9 1011.5 0.0
31/12:00pm 31.5 28.5 11.8 30 11.7 NNE 19 30 10 16 1013.5 1012.1 0.0
31/11:30am 31.0 28.1 12.4 32 11.1 NNE 19 30 10 16 1014.0 1012.6 0.0
31/11:00am 29.6 26.6 12.1 34 10.3 NNE 19 32 10 17 1014.5 1013.2 0.0
31/10:30am 29.2 27.0 13.4 38 9.5 NNE 17 32 9 17 1014.9 1013.6 0.0
31/10:00am 28.9 26.5 13.9 39 9.1 NNE 19 30 10 16 1015.3 1014.0 0.0
31/09:30am 27.9 25.7 13.4 40 8.7 NNE 17 24 9 13 1015.5 1014.2 0.0
31/09:00am 27.2 24.7 13.5 42 8.2 NE 19 26 10 14 1015.6 1014.3 0.0
31/08:30am 26.4 24.2 14.8 49 7.1 N 20 26 11 14 1015.5 1014.2 0.0
31/08:00am 25.1 23.2 15.1 53 6.1 N 19 26 10 14 1015.5 1014.2 0.0
31/07:30am 24.2 22.9 15.7 59 5.2 N 17 24 9 13 1015.4 1014.1 0.0
31/07:00am 23.1 21.5 15.9 64 4.4 N 19 24 10 13 1015.1 1013.8 0.0
31/06:30am 22.2 21.7 16.0 68 3.8 N 13 24 7 13 1015.1 1013.8 0.0
31/06:00am 21.2 21.5 16.0 72 3.2 N 9 17 5 9 1014.9 1013.6 0.0
31/05:30am 21.3 21.1 15.6 70 3.4 N 11 15 6 8 1014.7 1013.4 0.0
31/05:00am 21.5 21.5 15.3 68 3.7 NNE 9 13 5 7 1014.3 1012.9 0.0
31/04:30am 21.9 22.0 15.5 67 3.9 NNE 9 15 5 8 1014.0 1012.6 0.0
31/04:00am 22.4 21.9 15.0 63 4.4 NE 11 17 6 9 1013.9 1012.5 0.0
31/03:30am 22.8 21.4 14.6 60 4.9 NNE 15 24 8 13 1013.2 1011.8 0.0
31/03:00am 22.9 20.8 14.7 60 4.9 NNE 19 26 10 14 1013.0 1011.6 0.0
31/02:30am 22.9 20.8 15.2 62 4.6 ENE 20 37 11 20 1013.6 1012.2 0.0
31/02:00am 23.7 20.7 14.9 57 5.3 E 24 37 13 20 1013.6 1012.2 0.0
31/01:30am 23.8 20.4 14.8 57 5.4 E 26 39 14 21 1013.5 1012.1 0.0
31/01:08am 24.3 20.7 15.2 57 5.5 E 28 46 15 25 1013.9 1012.5 0.0
31/01:00am 23.3 20.7 15.9 63 4.5 ESE 24 44 13 24 1014.3 1012.9 0.0
31/12:30am 25.5 23.5 15.5 54 6.1 ESE 20 32 11 17 1014.9 1013.6 0.0
31/12:00am 26.3 25.3 15.7 52 6.5 SE 15 20 8 11 1014.6 1013.3 0.0
 
Date/Time
EST
Temp
°C
App
Temp
°C
Dew
Point
Rel
Hum
%
Delta-T
°C
Wind Press
QNH
hPa
Press
MSL
hPa
Rain
since 9 am
mm
Dir
 
Spd
km/h
Gust
km/h
Spd
kts
Gust
kts
30/11:30pm 26.8 25.5 15.8 51 6.8 NE 17 28 9 15 1012.9 1011.5 0.0
30/11:00pm 27.2 26.2 15.6 49 7.2 ENE 15 22 8 12 1012.5 1011.1 0.0
30/10:30pm 27.7 25.4 15.7 48 7.4 NE 22 30 12 16 1012.3 1010.9 0.0
30/10:00pm 28.3 26.5 15.6 46 7.9 NE 19 30 10 16 1012.1 1010.8 0.0
30/09:30pm 29.3 26.9 15.4 42 8.6 NNE 22 35 12 19 1012.6 1011.2 0.0
30/09:00pm 30.3 27.6 15.6 41 9.2 NNE 24 39 13 21 1011.9 1010.6 0.0
30/08:30pm 30.9 28.2 14.5 37 10.1 NE 22 33 12 18 1011.3 1010.0 0.0
30/08:00pm 30.3 28.3 8.7 26 12.1 N 9 13 5 7 1010.6 1009.2 0.0
30/07:30pm 31.5 30.0 9.1 25 12.7 NE 7 11 4 6 1010.4 1009.0 0.0
30/07:00pm 32.2 30.7 9.1 24 13.2 NE 7 11 4 6 1010.2 1008.8 0.0
30/06:30pm 33.4 31.4 8.8 22 14.0 ENE 9 13 5 7 1009.9 1008.5 0.0
30/06:00pm 34.5 32.8 8.3 20 14.9 ENE 7 13 4 7 1009.6 1008.2 0.0
30/05:30pm 35.5 33.2 9.1 20 15.3 NE 11 19 6 10 1009.3 1007.9 0.0
30/05:00pm 36.0 33.2 7.1 17 16.3 E 11 15 6 8 1009.1 1007.7 0.0
30/04:30pm 36.2 34.1 8.1 18 16.0 NNE 9 17 5 9 1008.9 1007.5 0.0
30/04:00pm 37.0 35.6 8.8 18 16.4 ESE 6 11 3 6 1009.1 1007.7 0.0
30/03:30pm 36.6 34.0 9.2 19 15.9 ESE 13 19 7 10 1009.3 1007.9 0.0
30/03:00pm 36.5 35.8 9.9 20 15.6 S 4 9 2 5 1009.5 1008.1 0.0
30/02:30pm 36.5 35.4 10.6 21 15.4 N 7 17 4 9 1010.0 1008.6 0.0
30/02:00pm 36.8 34.4 10.2 20 15.7 NNE 13 19 7 10 1010.6 1009.2 0.0
30/01:30pm 35.5 33.4 8.3 19 15.5 ENE 9 19 5 10 1011.1 1009.7 0.0
30/01:00pm 35.8 34.3 9.3 20 15.4 NNE 7 19 4 10 1011.6 1010.3 0.0
30/12:30pm 34.7 32.8 9.2 21 14.7 NNE 9 20 5 11 1012.4 1011.0 0.0
30/12:00pm 33.9 31.8 9.9 23 13.9 NNE 11 19 6 10 1012.8 1011.4 0.0
30/11:30am 33.1 32.1 11.0 26 13.0 N 7 13 4 7 1013.3 1011.9 0.0
30/11:00am 32.9 32.2 12.0 28 12.5 NE 7 19 4 10 1013.9 1012.5 0.0
30/10:30am 31.4 30.9 12.2 30 11.4 NNE 6 9 3 5 1014.3 1012.9 0.0
30/10:00am 30.9 30.4 12.8 33 10.9 ENE 7 13 4 7 1014.7 1013.4 0.0
30/09:30am 30.0 30.0 14.1 37 9.7 NE 7 17 4 9 1015.1 1013.8 0.0
30/09:00am 28.2 27.7 13.7 41 8.7 ENE 9 17 5 9 1015.3 1014.0 0.0
30/08:30am 27.3 25.6 13.6 43 8.2 ENE 15 22 8 12 1015.3 1014.0 0.0
30/08:00am 27.1 26.5 14.5 46 7.6 ENE 11 19 6 10 1015.1 1013.8 0.0
30/07:30am 23.9 25.0 14.6 56 5.6 NW 2 4 1 2 1015.0 1013.7 0.0
30/07:00am 22.0 23.2 13.9 60 4.8 CALM 0 0 0 0 1014.5 1013.2 0.0
30/06:30am 22.5 22.9 13.8 58 5.1 E 4 4 2 2 1014.3 1012.9 0.0
30/06:00am 22.2 23.4 13.8 59 4.9 CALM 0 2 0 1 1013.8 1012.4 0.0
30/05:30am 21.9 22.2 13.3 58 5.0 ENE 4 9 2 5 1013.4 1012.0 0.0
30/05:00am 22.5 21.5 13.3 56 5.4 ESE 11 15 6 8 1012.5 1011.1 0.0
30/04:30am 23.2 22.8 13.1 53 5.9 ESE 7 11 4 6 1012.1 1010.8 0.0
30/04:00am 23.6 22.6 13.5 53 5.9 ESE 11 17 6 9 1011.8 1010.5 0.0
30/03:30am 24.2 23.7 11.9 46 7.1 ENE 6 9 3 5 1011.9 1010.6 0.0
30/03:00am 25.3 24.8 12.2 44 7.6 NE 6 13 3 7 1012.1 1010.8 0.0
30/02:30am 25.5 23.9 12.7 45 7.5 N 13 26 7 14 1012.0 1010.7 0.0
30/02:00am 25.4 22.4 12.6 45 7.5 NNW 20 30 11 16 1012.3 1010.9 0.0
30/01:30am 25.8 20.5 12.6 44 7.7 NW 32 43 17 23 1012.0 1010.7 0.0
30/01:00am 27.1 22.7 11.6 38 9.0 NW 26 39 14 21 1013.3 1011.9 0.0
30/12:30am 28.9 25.2 10.1 31 10.7 WNW 20 28 11 15 1013.2 1011.8 0.0
30/12:00am 27.3 23.5 11.3 37 9.2 NE 22 26 12 14 1011.9 1010.6 0.0
 
Date/Time
EST
Temp
°C
App
Temp
°C
Dew
Point
Rel
Hum
%
Delta-T
°C
Wind Press
QNH
hPa
Press
MSL
hPa
Rain
since 9 am
mm
Dir
 
Spd
km/h
Gust
km/h
Spd
kts
Gust
kts
29/11:30pm 27.6 25.8 10.8 35 9.6 SW 11 24 6 13 1013.1 1011.7 0.0
29/11:00pm 27.0 25.0 12.6 41 8.5 W 15 30 8 16 1013.9 1012.5 0.0
29/10:30pm 26.1 25.9 13.6 46 7.4 W 7 11 4 6 1013.4 1012.0 0.0
29/10:00pm 29.5 28.1 9.6 29 11.3 SSW 7 11 4 6 1013.1 1011.7 0.0
29/09:30pm 28.4 26.3 6.5 25 11.7 ESE 7 9 4 5 1011.8 1010.5 0.0
29/09:00pm 29.6 27.5 5.6 22 12.7 ENE 6 7 3 4 1011.7 1010.4 0.0
29/08:30pm 30.8 28.4 5.3 20 13.6 ENE 7 11 4 6 1011.6 1010.3 0.0
29/08:00pm 31.2 28.7 4.9 19 13.9 NE 7 11 4 6 1011.5 1010.2 0.0
29/07:30pm 31.5 29.1 5.1 19 14.0 NE 7 9 4 5 1011.1 1009.7 0.0
29/07:00pm 32.0 29.5 4.7 18 14.5 NE 7 9 4 5 1011.0 1009.6 0.0
29/06:30pm 33.2 30.7 4.9 17 15.1 ENE 7 11 4 6 1010.7 1009.3 0.0
29/06:00pm 34.2 31.9 4.8 16 15.8 ENE 6 9 3 5 1010.6 1009.2 0.0
29/05:30pm 35.1 33.1 4.6 15 16.4 ENE 4 7 2 4 1010.5 1009.1 0.0
29/05:00pm 35.4 33.7 3.9 14 16.8 SE 2 6 1 3 1010.3 1008.9 0.0
29/04:30pm 36.1 34.5 4.4 14 17.1 SE 2 6 1 3 1010.2 1008.8 0.0
29/04:00pm 36.7 35.0 3.8 13 17.7 SE 2 9 1 5 1010.2 1008.8 0.0
29/03:30pm 37.0 34.2 2.9 12 18.0 SSW 7 11 4 6 1010.3 1008.9 0.0

Other Formats:

Comma delimited format used in spreadsheet applications
http://www.bom.gov.au/fwo/IDQ60801/IDQ60801.94399.axf

JavaScript Object Notation format (JSON) in row-major order
http://www.bom.gov.au/fwo/IDQ60801/IDQ60801.94399.json